Map

Track Data

SID SEASON NUMBER BASIN SUBBASIN NAME ISO_TIME NATURE LAT LON WMO_WIND WMO_PRES WMO_AGENCY TRACK_TYPE DIST2LAND LANDFALL IFLAG USA_AGENCY USA_ATCF_ID USA_LAT USA_LON USA_RECORD USA_STATUS USA_WIND USA_PRES USA_SSHS USA_R34_NE USA_R34_SE USA_R34_SW USA_R34_NW USA_R50_NE USA_R50_SE USA_R50_SW USA_R50_NW USA_R64_NE USA_R64_SE USA_R64_SW USA_R64_NW USA_POCI USA_ROCI USA_RMW USA_EYE TOKYO_LAT TOKYO_LON TOKYO_GRADE TOKYO_WIND TOKYO_PRES TOKYO_R50_DIR TOKYO_R50_LONG TOKYO_R50_SHORT TOKYO_R30_DIR TOKYO_R30_LONG TOKYO_R30_SHORT TOKYO_LAND CMA_LAT CMA_LON CMA_CAT CMA_WIND CMA_PRES HKO_LAT HKO_LON HKO_CAT HKO_WIND HKO_PRES NEWDELHI_LAT NEWDELHI_LON NEWDELHI_GRADE NEWDELHI_WIND NEWDELHI_PRES NEWDELHI_CI NEWDELHI_DP NEWDELHI_POCI REUNION_LAT REUNION_LON REUNION_TYPE REUNION_WIND REUNION_PRES REUNION_TNUM REUNION_CI REUNION_RMW REUNION_R34_NE REUNION_R34_SE REUNION_R34_SW REUNION_R34_NW REUNION_R50_NE REUNION_R50_SE REUNION_R50_SW REUNION_R50_NW REUNION_R64_NE REUNION_R64_SE REUNION_R64_SW REUNION_R64_NW BOM_LAT BOM_LON BOM_TYPE BOM_WIND BOM_PRES BOM_TNUM BOM_CI BOM_RMW BOM_R34_NE BOM_R34_SE BOM_R34_SW BOM_R34_NW BOM_R50_NE BOM_R50_SE BOM_R50_SW BOM_R50_NW BOM_R64_NE BOM_R64_SE BOM_R64_SW BOM_R64_NW BOM_ROCI BOM_POCI BOM_EYE BOM_POS_METHOD BOM_PRES_METHOD NADI_LAT NADI_LON NADI_CAT NADI_WIND NADI_PRES WELLINGTON_LAT WELLINGTON_LON WELLINGTON_WIND WELLINGTON_PRES DS824_LAT DS824_LON DS824_STAGE DS824_WIND DS824_PRES TD9636_LAT TD9636_LON TD9636_STAGE TD9636_WIND TD9636_PRES TD9635_LAT TD9635_LON TD9635_WIND TD9635_PRES TD9635_ROCI NEUMANN_LAT NEUMANN_LON NEUMANN_CLASS NEUMANN_WIND NEUMANN_PRES MLC_LAT MLC_LON MLC_CLASS MLC_WIND MLC_PRES USA_GUST BOM_GUST BOM_GUST_PER REUNION_GUST REUNION_GUST_PER USA_SEAHGT USA_SEARAD_NE USA_SEARAD_SE USA_SEARAD_SW USA_SEARAD_NW STORM_SPEED STORM_DIR
1943041S15150 1943 16 SP EA NOT_NAMED 1943-02-09 23:00:00 NR -14.5500 150.300 998 bom main 425 436 ______O___O___ -1 -14.6000 150.300 998 -14.5000 150.300 7 8 223
1943041S15150 1943 16 SP EA NOT_NAMED 1943-02-10 00:00:00 TS -14.6464 150.208 main 436 436 ______P__OP___ -1 -14.6715 150.187 -14.7000 150.200 TC 35 998 -14.5944 150.234 7 7 227
1943041S15150 1943 16 SP EA NOT_NAMED 1943-02-10 03:00:00 TS -14.8864 149.926 main 471 458 ______P__PP___ -1 -14.8857 149.851 -14.9022 149.878 TC -14.8765 150.032 7 7 229
1943041S15150 1943 16 SP EA NOT_NAMED 1943-02-10 06:00:00 TS -15.1209 149.641 main 449 419 ______P__PP___ -1 -15.0993 149.524 -15.1050 149.562 TC -15.1544 149.816 7 7 230
1943041S15150 1943 16 SP EA NOT_NAMED 1943-02-10 09:00:00 TS -15.3490 149.350 main 419 390 ______P__PP___ -1 -15.3124 149.214 -15.3096 149.260 TC -15.4251 149.577 7 7 231
1943041S15150 1943 16 SP EA NOT_NAMED 1943-02-10 11:00:00 TS -15.5006 149.163 main 390 375 ______P__PO___ -1 -15.4541 149.020 -15.4476 149.069 TC -15.6000 149.400 7 7 230
1943041S15150 1943 16 SP EA NOT_NAMED 1943-02-10 12:00:00 TS -15.5759 149.070 main 375 337 ______P__PP___ -1 -15.5249 148.927 -15.5172 148.978 TC -15.6855 149.305 7 7 229
1943041S15150 1943 16 SP EA NOT_NAMED 1943-02-10 15:00:00 TS -15.8005 148.802 main 337 308 ______P__PP___ -1 -15.7369 148.672 -15.7287 148.724 TC -15.9361 149.010 7 7 227
1943041S15150 1943 16 SP EA NOT_NAMED 1943-02-10 18:00:00 TS -16.0254 148.563 main 308 279 ______P__PP___ -1 -15.9483 148.455 -15.9456 148.505 TC -16.1823 148.728 7 6 222
1943041S15150 1943 16 SP EA NOT_NAMED 1943-02-10 21:00:00 TS -16.2529 148.371 main 274 259 ______P__PP___ -1 -16.1594 148.284 -16.1689 148.328 TC -16.4304 148.501 7 6 215
1943041S15150 1943 16 SP EA NOT_NAMED 1943-02-10 23:00:00 TS -16.4073 148.279 996 bom main 259 254 ______O__PO___ -1 -16.3000 148.200 996 -16.3220 148.237 TC -16.6000 148.400 7 5 207
1943041S15150 1943 16 SP EA NOT_NAMED 1943-02-11 00:00:00 TS -16.4870 148.248 main 245 236 ______P__OP___ -1 -16.3703 148.167 -16.4000 148.200 TC 35 996 -16.6907 148.376 7 5 194
1943041S15150 1943 16 SP EA NOT_NAMED 1943-02-11 03:00:00 TS -16.7309 148.201 main 236 227 ______P__PP___ -1 -16.5832 148.105 -16.6401 148.126 TC -16.9694 148.371 7 5 183
1943041S15150 1943 16 SP EA NOT_NAMED 1943-02-11 06:00:00 TS -16.9819 148.209 main 227 224 ______P__PP___ -1 -16.8041 148.091 -16.8907 148.100 TC -17.2509 148.437 7 5 174
1943041S15150 1943 16 SP EA NOT_NAMED 1943-02-11 09:00:00 TS -17.2393 148.255 main 234 233 ______P__PP___ -1 -17.0391 148.116 -17.1533 148.115 TC -17.5254 148.535 7 5 169
1943041S15150 1943 16 SP EA NOT_NAMED 1943-02-11 11:00:00 TS -17.4141 148.297 main 233 232 ______P__PO___ -1 -17.2065 148.150 -17.3358 148.142 TC -17.7000 148.600 7 5 168
1943041S15150 1943 16 SP EA NOT_NAMED 1943-02-11 12:00:00 TS -17.4993 148.316 main 232 217 ______P__PP___ -1 -17.2942 148.171 -17.4295 148.161 TC -17.7743 148.616 7 5 168
1943041S15150 1943 16 SP EA NOT_NAMED 1943-02-11 15:00:00 TS -17.7598 148.380 main 207 188 ______P__PP___ -1 -17.5754 148.249 -17.7207 148.231 TC -17.9832 148.661 7 6 166
1943041S15150 1943 16 SP EA NOT_NAMED 1943-02-11 18:00:00 TS -18.0360 148.455 main 194 168 ______P__PP___ -1 -17.8890 148.340 -18.0285 148.316 TC -18.1904 148.709 7 6 166
1943041S15150 1943 16 SP EA NOT_NAMED 1943-02-11 21:00:00 TS -18.3388 148.536 main 168 160 ______P__PP___ -1 -18.2410 148.437 -18.3545 148.409 TC -18.4210 148.761 7 7 167
1943041S15150 1943 16 SP EA NOT_NAMED 1943-02-11 23:00:00 TS -18.5608 148.590 996 bom main 153 146 ______O__PO___ -1 -18.5000 148.500 996 -18.5825 148.470 TC -18.6000 148.800 7 7 166
1943041S15150 1943 16 SP EA NOT_NAMED 1943-02-12 00:00:00 TS -18.6806 148.619 main 146 119 ______P__OP___ -1 -18.6432 148.527 -18.7000 148.500 TC 35 996 -18.6988 148.830 7 8 167
1943041S15150 1943 16 SP EA NOT_NAMED 1943-02-12 03:00:00 TS -19.0637 148.709 main 109 76 ______P__PP___ -1 -19.0996 148.614 -19.0660 148.583 TC -19.0255 148.929 7 8 168
1943041S15150 1943 16 SP EA NOT_NAMED 1943-02-12 06:00:00 TS -19.4743 148.794 main 76 45 ______P__PP___ -1 -19.5766 148.701 -19.4507 148.658 TC -19.3955 149.023 7 9 170
1943041S15150 1943 16 SP EA NOT_NAMED 1943-02-12 09:00:00 TS -19.9018 148.864 main 45 35 ______P__PP___ -1 -20.0483 148.779 -19.8512 148.726 TC -19.8057 149.087 7 9 172
1943041S15150 1943 16 SP EA NOT_NAMED 1943-02-12 10:00:00 TS -20.0462 148.881 bom main 35 15 ______O__PP___ -1 -20.2000 148.800 -19.9878 148.747 TC -19.9509 149.097 7 9 177
1943041S15150 1943 16 SP EA NOT_NAMED 1943-02-12 11:00:00 TS -20.1921 148.890 main 15 10 ______P__PO___ -1 -20.3504 148.803 -20.1258 148.768 TC -20.1000 149.100 7 9 176
1943041S15150 1943 16 SP EA NOT_NAMED 1943-02-12 12:00:00 TS -20.3414 148.889 main 10 0 ______P__PP___ -1 -20.4994 148.802 -20.2651 148.788 TC -20.2598 149.078 7 9 0
1943041S15150 1943 16 SP EA NOT_NAMED 1943-02-12 15:00:00 TS -20.7976 148.866 main 10 0 ______P__PP___ -1 -20.9326 148.785 -20.6896 148.845 TC -20.7707 148.969 7 9 182
1943041S15150 1943 16 SP EA NOT_NAMED 1943-02-12 18:00:00 TS -21.2514 148.838 main 0 0 ______P__PP___ -1 -21.3349 148.780 -21.1220 148.898 TC -21.2974 148.835 7 9 183
1943041S15150 1943 16 SP EA NOT_NAMED 1943-02-12 21:00:00 TS -21.6952 148.824 main 0 0 ______P__PP___ -1 -21.6927 148.824 -21.5597 148.950 TC -21.7993 148.729 7 9 0
1943041S15150 1943 16 SP EA NOT_NAMED 1943-02-12 23:00:00 TS -21.9706 148.837 999 bom main 0 0 ______O__PO___ -1 -21.9000 148.900 999 4 -21.8531 148.983 TC -22.1000 148.700 7 8 0
1943041S15150 1943 16 SP EA NOT_NAMED 1943-02-13 00:00:00 TS -22.1010 148.851 main 0 0 ______P__OP___ -1 -21.9933 148.963 -22.0000 149.000 TC 30 999 -22.2340 148.702 7 7 163
1943041S15150 1943 16 SP EA NOT_NAMED 1943-02-13 03:00:00 NR -22.4134 148.984 main 0 0 ______P___P___ -1 -22.2316 149.213 TC -22.5951 148.755 7 7 149
1943041S15150 1943 16 SP EA NOT_NAMED 1943-02-13 06:00:00 NR -22.6589 149.215 main 0 0 ______P___P___ -1 -22.4179 149.542 TC -22.8999 148.888 7 7 132
1943041S15150 1943 16 SP EA NOT_NAMED 1943-02-13 09:00:00 NR -22.8602 149.517 main 0 0 ______P___P___ -1 -22.5656 149.928 TC -23.1547 149.105 7 7 122
1943041S15150 1943 16 SP EA NOT_NAMED 1943-02-13 11:00:00 NR -22.9747 149.755 main 0 0 ______P___O___ -1 -22.6494 150.209 TC -23.3000 149.300 7 8 116
1943041S15150 1943 16 SP EA NOT_NAMED 1943-02-13 12:00:00 NR -23.0272 149.884 main 0 0 ______P___P___ -1 -22.6884 150.354 TC -23.3660 149.413 7 8 111
1943041S15150 1943 16 SP EA NOT_NAMED 1943-02-13 15:00:00 NR -23.1705 150.303 bom main 0 0 ______O___P___ -1 -22.8000 150.800 TC -23.5410 149.806 7 8 109
1943041S15150 1943 16 SP EA NOT_NAMED 1943-02-13 18:00:00 NR -23.3002 150.756 main 0 0 ______P___P___ -1 -22.9117 151.249 TC -23.6887 150.262 7 9 106
1943041S15150 1943 16 SP EA NOT_NAMED 1943-02-13 21:00:00 NR -23.4217 151.229 main 32 32 ______P___P___ -1 -23.0247 151.700 TC -23.8186 150.759 7 9 105
1943041S15150 1943 16 SP EA NOT_NAMED 1943-02-13 23:00:00 NR -23.5000 151.550 1004 bom main 60 ______O___O___ -1 -23.1000 152.000 1004 TC -23.9000 151.100 7 9 105

Digital Typhoon Data and Search

About IBTrACS Database

This database is a web-friendly format of International Best Track Archive for Climate Stewardship (IBTrACS), a global best track data archive curated by NOAA dating back to 1842.

Updated: 2021-12-08